»·PEaware :: AWE2128 KSLC-KPHX

AWE2128 :: KSLC-KPHX

FLIGHT INFORMATION

Flight Status: Arrived
Operator:
US Airways
More flights by this operator :: More flights under this callsign
Pilot: Dave P. (45)
Aircraft: BOEING 737-700
(B737)
More flights by this aircraft type
Origin: KSLC Salt Lake City Intl
United States
Destination: KPHX Phoenix Sky Harbor Intl
United States
More flights between these airports :: More routes between these airports
Route: +ZIONZ1 BCE CORKR TENTS BRUSR1
File this flight plan on PilotEdge
Remarks: RMK / SIMBRIEF
Altitude:
(Current/Filed)
37,000ft
Speed:
(Current/Filed)
453kts
Departed: 15-Jun-19 07:19 AM
Arrived: 15-Jun-19 08:29 AM
Distance/Time
Traveled:
441nm/1:10
Distance/Time
To Go:
Arrived

Flight Plot

Page will automatically refresh every two minutes.

Flight plan parsing failed; only flown route is shown


Map Options




Map Legend


Flown Route
Filed Route
Departure Airport
Arrival Airport
Navaid (VOR, NDB)
Fix

Horizontal Profiles

Position Reports

Time Latitude Longitude Heading Altitude Ground
Speed
15-Jun-19 06:57 40.784718 -111.978025 3 4235ft 0kts
15-Jun-19 06:58 40.784718 -111.978025 3 4235ft 0kts
15-Jun-19 06:59 40.784718 -111.978025 3 4235ft 0kts
15-Jun-19 07:01 40.784718 -111.978025 3 4235ft 0kts
15-Jun-19 07:02 40.784718 -111.978025 3 4235ft 0kts
15-Jun-19 07:03 40.784718 -111.978025 3 4235ft 0kts
15-Jun-19 07:04 40.784718 -111.978025 3 4235ft 0kts
15-Jun-19 07:05 40.784718 -111.978025 3 4235ft 0kts
15-Jun-19 07:06 40.784718 -111.978025 3 4235ft 0kts
15-Jun-19 07:07 40.784718 -111.978025 3 4235ft 0kts
15-Jun-19 07:08 40.784718 -111.978025 3 4235ft 0kts
15-Jun-19 07:09 40.784718 -111.978025 3 4235ft 0kts
15-Jun-19 07:10 40.784718 -111.978025 3 4235ft 0kts
15-Jun-19 07:11 40.784150 -111.978077 3 4235ft 0kts
15-Jun-19 07:12 40.784150 -111.978077 3 4235ft 0kts
15-Jun-19 07:13 40.784198 -111.978045 37 4235ft 2kts
15-Jun-19 07:14 40.787170 -111.976813 355 4235ft 23kts
15-Jun-19 07:15 40.793829 -111.977579 355 4235ft 24kts
15-Jun-19 07:16 40.800988 -111.978412 354 4235ft 26kts
15-Jun-19 07:17 40.807453 -111.978865 64 4235ft 12kts
15-Jun-19 07:18 40.806035 -111.976710 175 4235ft 18kts
15-Jun-19 07:19 40.774293 -111.973583 175 5125ft 155kts
15-Jun-19 07:19 40.734993 -111.967772 172 6590ft 203kts
15-Jun-19 07:21 40.652244 -111.961562 177 8802ft 290kts
15-Jun-19 07:22 40.566907 -111.957278 177 11554ft 337kts
15-Jun-19 07:22 40.483501 -111.953104 178 13645ft 372kts
15-Jun-19 07:24 40.359744 -111.944989 178 17382ft 390kts
15-Jun-19 07:24 40.268186 -111.939872 183 19767ft 401kts
15-Jun-19 07:25 40.155399 -111.956489 189 22339ft 415kts
15-Jun-19 07:26 40.038649 -111.973896 188 24590ft 428kts
15-Jun-19 07:27 39.918995 -111.991344 188 26666ft 438kts
15-Jun-19 07:28 39.796465 -112.009175 188 28486ft 448kts
15-Jun-19 07:29 39.671098 -112.027481 188 30086ft 456kts
15-Jun-19 07:30 39.544536 -112.045781 188 31757ft 458kts
15-Jun-19 07:31 39.417722 -112.063990 189 33438ft 456kts
15-Jun-19 07:32 39.291849 -112.081861 189 34899ft 455kts
15-Jun-19 07:33 39.166239 -112.099606 189 36190ft 453kts
15-Jun-19 07:34 39.040759 -112.117263 189 37130ft 456kts
15-Jun-19 07:35 38.914999 -112.134882 189 37142ft 453kts
15-Jun-19 07:36 38.789224 -112.152447 189 37145ft 455kts
15-Jun-19 07:37 38.663338 -112.170057 189 37175ft 456kts
15-Jun-19 07:38 38.537396 -112.187572 190 37188ft 456kts
15-Jun-19 07:39 38.410696 -112.205122 190 37200ft 458kts
15-Jun-19 07:40 38.284006 -112.222603 190 37219ft 459kts
15-Jun-19 07:41 38.156673 -112.240115 190 37234ft 459kts
15-Jun-19 07:42 38.029635 -112.257525 190 37251ft 459kts
15-Jun-19 07:43 37.902472 -112.274931 190 37271ft 459kts
15-Jun-19 07:44 37.775611 -112.292176 190 37289ft 459kts
15-Jun-19 07:45 37.648494 -112.307669 186 37288ft 460kts
15-Jun-19 07:46 37.520277 -112.314646 186 37272ft 460kts
15-Jun-19 07:47 37.392527 -112.322115 186 37243ft 460kts
15-Jun-19 07:48 37.264388 -112.329827 186 37209ft 460kts
15-Jun-19 07:49 37.136579 -112.337552 186 37183ft 460kts
15-Jun-19 07:50 37.008745 -112.345268 186 37172ft 460kts
15-Jun-19 07:51 36.880856 -112.352964 186 37175ft 460kts
15-Jun-19 07:52 36.752774 -112.360646 186 37172ft 460kts
15-Jun-19 07:53 36.624469 -112.368316 186 37170ft 461kts
15-Jun-19 07:54 36.496177 -112.375959 186 37181ft 462kts
15-Jun-19 07:55 36.367553 -112.383611 186 37196ft 463kts
15-Jun-19 07:56 36.238842 -112.391231 186 37215ft 463kts
15-Jun-19 07:57 36.109849 -112.398832 186 37231ft 464kts
15-Jun-19 07:58 35.981320 -112.409211 188 37239ft 463kts
15-Jun-19 07:59 35.852487 -112.420561 188 37245ft 463kts
15-Jun-19 08:00 35.724084 -112.431816 187 34849ft 463kts
15-Jun-19 08:01 35.595369 -112.442994 186 31451ft 466kts
15-Jun-19 08:02 35.467968 -112.446602 175 29502ft 451kts
15-Jun-19 08:03 35.342771 -112.422554 172 29267ft 458kts
15-Jun-19 08:04 35.216963 -112.397868 172 29255ft 458kts
15-Jun-19 08:05 35.091313 -112.371096 171 27880ft 452kts
15-Jun-19 08:06 34.969348 -112.344639 171 26213ft 440kts
15-Jun-19 08:07 34.850044 -112.318812 171 24485ft 430kts
15-Jun-19 08:08 34.734366 -112.293331 171 23026ft 422kts
15-Jun-19 08:09 34.620090 -112.268222 171 21496ft 413kts
15-Jun-19 08:10 34.508106 -112.243725 171 19987ft 403kts
15-Jun-19 08:11 34.402197 -112.219117 169 18485ft 373kts
15-Jun-19 08:12 34.302592 -112.192980 169 16816ft 359kts
15-Jun-19 08:13 34.206768 -112.168170 168 15312ft 347kts
15-Jun-19 08:14 34.116740 -112.144962 168 13905ft 327kts
15-Jun-19 08:15 34.030491 -112.142893 185 12603ft 302kts
15-Jun-19 08:16 33.947664 -112.152538 184 11326ft 297kts
15-Jun-19 08:17 33.867021 -112.165238 190 10088ft 285kts
15-Jun-19 08:18 33.789053 -112.182285 189 8677ft 281kts
15-Jun-19 08:19 33.714513 -112.198072 189 8107ft 252kts
15-Jun-19 08:20 33.645869 -112.212561 189 6819ft 246kts
15-Jun-19 08:21 33.578881 -112.227091 190 5586ft 244kts
15-Jun-19 08:22 33.512522 -112.241492 190 4330ft 236kts
15-Jun-19 08:23 33.452567 -112.251286 159 3203ft 213kts
15-Jun-19 08:24 33.440488 -112.190009 86 2988ft 203kts
15-Jun-19 08:25 33.440823 -112.124328 87 2742ft 184kts
15-Jun-19 08:26 33.440826 -112.070334 88 1843ft 140kts
15-Jun-19 08:27 33.440831 -112.025684 90 1180ft 131kts
15-Jun-19 08:28 33.440144 -112.007360 169 1143ft 6kts
15-Jun-19 08:29 33.439010 -112.004691 89 1143ft 22kts
15-Jun-19 08:30 33.438390 -112.001011 225 1143ft 6kts
15-Jun-19 08:31 33.438184 -112.001262 225 1143ft 0kts
15-Jun-19 08:32 33.438184 -112.001262 225 1143ft 0kts
15-Jun-19 08:33 33.438184 -112.001262 225 1143ft 0kts
15-Jun-19 08:34 33.438184 -112.001262 225 1143ft 0kts
15-Jun-19 08:35 33.438184 -112.001262 225 1143ft 0kts
15-Jun-19 08:36 33.438184 -112.001262 225 1143ft 0kts
15-Jun-19 08:37 33.438184 -112.001262 225 1143ft 0kts
15-Jun-19 08:38 33.438184 -112.001262 225 1143ft 0kts

Navigation Log

Ident Type
Flight plan parsing failed, navigation log unavailable